• Join FlightAware (Why Join?)
  • Login
  • US Flag 
11:10AM EDT


 

Airport Tracker/Info


-or-


 

Live Flight TrackerFlight Track Log ✈ C-GHLU ✈ 02-May-2012 ✈ CYVR - ZSPD / PVG

Flight Track Log - Related Links

Times and Time Zones

All times are in EDT time to prevent confusion due to time zone crossing. See the C-GHLU flight status page for this flight to view local times or setup timezone preferences in your user account.

Time Position Orientation Groundspeed Altitude Reporting Facility
EDT Latitude Longitude Course Direction KTS MPH feet Rate Location/Type
02:36PM 49.1650 -123.1772 285° West  Level FlightAware Approximate
02:37PM 49.2538 -123.2897 177° South  Level FlightAware Approximate
02:37PM 49.1833 -123.2833 302° West 200 230 2,600  Level Vancouver Center
02:38PM 49.2167 -123.3667 360° North 220 253 4,200 1,680 Climbing Vancouver Center
02:39PM 49.2833 -123.3667 353° North 270 311 6,000 1,980 Climbing Vancouver Center
02:40PM 49.3667 -123.3833 345° North 290 334 8,300 1,500 Climbing Vancouver Center
02:41PM 49.4500 -123.4167 353° North 300 345 9,100 1,260 Climbing Vancouver Center
02:42PM 49.5333 -123.4333 327° Northwest 300 345 10,900 1,560 Climbing Vancouver Center
02:43PM 49.6167 -123.5167 342° North 360 414 12,300 1,800 Climbing Vancouver Center
02:44PM 49.7167 -123.5667 335° Northwest 390 449 14,500 2,340 Climbing Vancouver Center
02:45PM 49.8333 -123.6500 337° Northwest 410 472 17,000 2,220 Climbing Vancouver Center
02:46PM 49.9333 -123.7167 332° Northwest 420 483 19,000 2,100 Climbing Vancouver Center
02:47PM 50.0333 -123.8000 335° Northwest 430 495 21,200 1,980 Climbing Vancouver Center
02:48PM 50.1500 -123.8833 340° North 430 495 23,000 1,800 Climbing Vancouver Center
02:49PM 50.2667 -123.9500 332° Northwest 440 506 24,800 1,740 Climbing Vancouver Center
02:50PM 50.3667 -124.0333 336° Northwest 440 506 26,500 1,860 Climbing Vancouver Center
02:51PM 50.4833 -124.1167 336° Northwest 440 506 28,600 1,740 Climbing Vancouver Center
02:52PM 50.6000 -124.2000 337° Northwest 440 506 30,000 660 Climbing Vancouver Center
02:53PM 50.7000 -124.2667 336° Northwest 430 495 30,000  Level Vancouver Center
02:54PM 50.8167 -124.3500 332° Northwest 430 495 30,000  Level Vancouver Center
02:55PM 50.9167 -124.4333 336° Northwest 430 495 30,000  Level Vancouver Center
02:56PM 51.0333 -124.5167 336° Northwest 440 506 30,000  Level Vancouver Center
02:57PM 51.1500 -124.6000 336° Northwest 440 506 30,000  Level Vancouver Center
02:58PM 51.2667 -124.6833 333° Northwest 440 506 30,000  Level Vancouver Center
02:59PM 51.3667 -124.7667 336° Northwest 450 518 30,000  Level Vancouver Center
03:00PM 51.4833 -124.8500 336° Northwest 450 518 30,000  Level Vancouver Center
03:01PM 51.6000 -124.9333 333° Northwest 450 518 30,000  Level Vancouver Center
03:02PM 51.7000 -125.0167 339° North 450 518 30,000  Level Vancouver Center
03:03PM 51.8333 -125.1000 333° Northwest 450 518 30,000  Level Vancouver Center
03:04PM 51.9333 -125.1833 336° Northwest 440 506 30,000  Level Vancouver Center
03:05PM 52.0500 -125.2667 324° Northwest 440 506 30,000  Level Vancouver Center
03:06PM 52.1500 -125.3833 345° North 440 506 30,000  Level Vancouver Center
03:07PM 52.2667 -125.4333 329° Northwest 440 506 30,000  Level Vancouver Center
03:08PM 52.3833 -125.5500 333° Northwest 440 506 30,000  Level Vancouver Center
03:09PM 52.4833 -125.6333 337° Northwest 440 506 30,000  Level Vancouver Center
03:10PM 52.6000 -125.7167 333° Northwest 450 518 30,000  Level Vancouver Center
03:11PM 52.7167 -125.8167 337° Northwest 450 518 30,000  Level Vancouver Center
03:12PM 52.8333 -125.9000 333° Northwest 450 518 30,000  Level Vancouver Center
03:13PM 52.9333 -125.9833 337° Northwest 450 518 30,000  Level Vancouver Center
03:14PM 53.0500 -126.0667 333° Northwest 450 518 30,000  Level Vancouver Center
03:15PM 53.1667 -126.1667 334° Northwest 450 518 30,000  Level Vancouver Center
03:16PM 53.2667 -126.2500 333° Northwest 460 529 30,000  Level Vancouver Center
03:17PM 53.3833 -126.3500 333° Northwest 460 529 30,000  Level Vancouver Center
03:18PM 53.5167 -126.4667 334° Northwest 460 529 30,000  Level Vancouver Center
03:19PM 53.6167 -126.5500 333° Northwest 460 529 30,000  Level Vancouver Center
03:20PM 53.7333 -126.6500 337° Northwest 460 529 30,000  Level Vancouver Center
03:21PM 53.8500 -126.7333 333° Northwest 460 529 30,000  Level Vancouver Center
03:22PM 53.9667 -126.8333 330° Northwest 470 541 30,000  Level Vancouver Center
03:23PM 54.0833 -126.9500 333° Northwest 470 541 30,000  Level Vancouver Center
03:24PM 54.2000 -127.0500 333° Northwest 470 541 30,000  Level Vancouver Center
03:25PM 54.3167 -127.1500 337° Northwest 460 529 30,000  Level Vancouver Center
03:26PM 54.4333 -127.2333 326° Northwest 470 541 30,000  Level Vancouver Center
03:27PM 54.5500 -127.3667 334° Northwest 470 541 30,000  Level Vancouver Center
03:28PM 54.6667 -127.4667 334° Northwest 470 541 30,000  Level Vancouver Center
03:29PM 54.7667 -127.5500 334° Northwest 480 552 30,000  Level Vancouver Center
03:30PM 54.8833 -127.6500 327° Northwest 460 529 30,000  Level Vancouver Center
03:31PM 55.0000 -127.7833 334° Northwest 470 541 30,000  Level Vancouver Center
03:32PM 55.1167 -127.8833 334° Northwest 460 529 30,000  Level Vancouver Center
03:33PM 55.2333 -127.9833 330° Northwest 470 541 30,000  Level Vancouver Center
03:34PM 55.3333 -128.0833 337° Northwest 460 529 30,000  Level Vancouver Center
03:35PM 55.4667 -128.1833 323° Northwest 470 541 30,000  Level Vancouver Center
03:36PM 55.5667 -128.3167 337° Northwest 460 529 30,000  Level Vancouver Center
03:37PM 55.7000 -128.4167 331° Northwest 460 529 30,000  Level Vancouver Center
03:38PM 55.8000 -128.5167 334° Northwest 470 541 30,000  Level Vancouver Center
03:39PM 55.9167 -128.6167 334° Northwest 460 529 30,000  Level Vancouver Center
03:40PM 56.0333 -128.7167 328° Northwest 470 541 30,000  Level Vancouver Center
03:41PM 56.1500 -128.8500 331° Northwest 470 541 30,000  Level Vancouver Center
03:42PM 56.2667 -128.9667 331° Northwest 460 529 30,000  Level Vancouver Center
03:43PM 56.3667 -129.0667 335° Northwest 480 552 30,000  Level Vancouver Center
03:44PM 56.4833 -129.1667 331° Northwest 470 541 30,000  Level Vancouver Center
03:45PM 56.6167 -129.3000 322° Northwest 460 529 30,000  Level Vancouver Center
03:46PM 56.7000 -129.4167 328° Northwest 470 541 30,000  Level Vancouver Center
03:47PM 56.8167 -129.5500 331° Northwest 460 529 30,000  Level Vancouver Center
03:48PM 56.9333 -129.6667 318° Northwest 470 541 30,000  Level Vancouver Center
03:49PM 57.0333 -129.8333 328° Northwest 470 541 30,000  Level Vancouver Center
03:50PM 57.1500 -129.9667 319° Northwest 470 541 30,000  Level Vancouver Center
03:58PM 57.8888 -130.9296 318° Northwest  Level FlightAware Approximate
03:59PM 57.9799 -131.0843 318° Northwest  Level FlightAware Approximate
04:00PM 58.0709 -131.2399 317° Northwest  Level FlightAware Approximate
04:01PM 58.1617 -131.3962 317° Northwest  Level FlightAware Approximate
04:02PM 58.2523 -131.5534 317° Northwest  Level FlightAware Approximate
04:03PM 58.3427 -131.7113 317° Northwest  Level FlightAware Approximate
04:04PM 58.4329 -131.8701 317° Northwest  Level FlightAware Approximate
04:05PM 58.5229 -132.0297 317° Northwest  Level FlightAware Approximate
04:06PM 58.6127 -132.1901 317° Northwest  Level FlightAware Approximate
04:07PM 58.7262 -132.1307 316° Northwest  Level FlightAware Approximate
04:08PM 58.8144 -132.2952 316° Northwest  Level FlightAware Approximate
04:09PM 58.9024 -132.4606 315° West  Level FlightAware Approximate
04:10PM 58.9902 -132.6268 315° West  Level FlightAware Approximate
04:11PM 59.0779 -132.7938 315° West  Level FlightAware Approximate
04:12PM 59.1652 -132.9617 315° West  Level FlightAware Approximate
04:13PM 59.2524 -133.1305 315° West  Level FlightAware Approximate
04:14PM 59.3394 -133.3001 315° West  Level FlightAware Approximate
04:15PM 59.4261 -133.4706 315° West  Level FlightAware Approximate
04:16PM 59.5126 -133.6420 314° West  Level FlightAware Approximate
04:17PM 59.5989 -133.8142 314° West  Level FlightAware Approximate
04:18PM 59.6849 -133.9874 314° West  Level FlightAware Approximate
04:19PM 59.7707 -134.1614 314° West  Level FlightAware Approximate
04:20PM 59.8563 -134.3363 314° West  Level FlightAware Approximate
04:21PM 59.9417 -134.5122 314° West  Level FlightAware Approximate
04:22PM 60.0268 -134.6889 313° West  Level FlightAware Approximate
04:23PM 60.1117 -134.8665 313° West  Level FlightAware Approximate
04:24PM 60.1963 -135.0451 313° West  Level FlightAware Approximate
04:25PM 60.2807 -135.2246 313° West  Level FlightAware Approximate
04:26PM 60.3649 -135.4050 313° West  Level FlightAware Approximate
04:27PM 60.4482 -135.5874 313° West  Level FlightAware Approximate
04:28PM 60.5313 -135.7708 312° West  Level FlightAware Approximate
04:29PM 60.6141 -135.9552 312° West  Level FlightAware Approximate
04:30PM 60.6967 -136.1405 312° West  Level FlightAware Approximate
04:31PM 60.7790 -136.3267 312° West  Level FlightAware Approximate
04:32PM 60.8599 -136.5113 312° West  Level FlightAware Approximate
04:33PM 60.9405 -136.6968 312° West  Level FlightAware Approximate
04:34PM 61.0209 -136.8832 311° West  Level FlightAware Approximate
04:35PM 61.1010 -137.0706 311° West  Level FlightAware Approximate
04:36PM 61.1809 -137.2589 311° West  Level FlightAware Approximate
04:37PM 61.2604 -137.4482 311° West  Level FlightAware Approximate
04:38PM 61.3398 -137.6385 311° West  Level FlightAware Approximate
04:39PM 61.4188 -137.8297 310° West  Level FlightAware Approximate
04:40PM 61.4976 -138.0219 310° West  Level FlightAware Approximate
04:41PM 61.5762 -138.2150 310° West  Level FlightAware Approximate
04:42PM 61.6544 -138.4091 310° West  Level FlightAware Approximate
04:43PM 61.7324 -138.6043 310° West  Level FlightAware Approximate
04:44PM 61.8101 -138.8004 310° West  Level FlightAware Approximate
04:45PM 61.8875 -138.9975 309° West  Level FlightAware Approximate
04:46PM 61.9646 -139.1956 309° West  Level FlightAware Approximate
04:47PM 62.0415 -139.3947 309° West  Level FlightAware Approximate
04:48PM 62.1180 -139.5948 309° West  Level FlightAware Approximate
04:49PM 62.1943 -139.7959 308° West  Level FlightAware Approximate
04:50PM 62.2703 -139.9980 308° West  Level FlightAware Approximate
04:51PM 62.3460 -140.2012 308° West  Level FlightAware Approximate
04:52PM 62.4213 -140.4053 308° West  Level FlightAware Approximate
04:53PM 62.4964 -140.6106 307° West  Level FlightAware Approximate
04:54PM 62.5712 -140.8168 307° West  Level FlightAware Approximate
04:55PM 62.8833 -141.7333 300° West 470 541 30,000  Level Anchorage Center
04:56PM 62.9500 -141.9833 310° West 460 529 30,000 120 Level Anchorage Center
04:57PM 63.0333 -142.2000 310° West 450 518 30,300 360 Climbing Anchorage Center
04:58PM 63.1167 -142.4167 311° West 460 529 30,800 480 Climbing Anchorage Center
04:59PM 63.2000 -142.6333 302° West 460 529 31,300 540 Climbing Anchorage Center
05:00PM 63.2667 -142.8667 309° West 460 529 32,000 300 Climbing Anchorage Center
05:01PM 63.3500 -143.1000 305° West 460 529 32,000  Level Anchorage Center
05:02PM 63.4167 -143.3167 309° West 450 518 32,000  Level Anchorage Center
05:03PM 63.5000 -143.5500 301° West 450 518 32,000  Level Anchorage Center
05:04PM 63.5667 -143.8000 303° West 460 529 32,000  Level Anchorage Center
05:05PM 63.6333 -144.0333 309° West 460 529 32,000  Level Anchorage Center
05:06PM 63.7167 -144.2667 303° West 460 529 32,000  Level Anchorage Center
05:07PM 63.7833 -144.5000 309° West 460 529 32,000  Level Anchorage Center
05:08PM 63.8667 -144.7333 301° West 450 518 32,000  Level Anchorage Center
05:09PM 63.9333 -144.9833 307° West 450 518 32,000  Level Anchorage Center
05:10PM 64.0167 -145.2333 303° West 450 518 32,000  Level Anchorage Center
05:11PM 64.0833 -145.4667 302° West 460 529 32,000  Level Anchorage Center
05:12PM 64.1500 -145.7167 303° West 450 518 32,000  Level Anchorage Center
05:13PM 64.2167 -145.9500 308° West 450 518 32,000  Level Anchorage Center
05:14PM 64.3000 -146.2000 304° West 450 518 32,000  Level Anchorage Center
05:15PM 64.3667 -146.4333 300° West 450 518 32,000  Level Anchorage Center
05:16PM 64.4333 -146.7000 304° West 450 518 32,000  Level Anchorage Center
05:17PM 64.5000 -146.9333 302° West 450 518 32,000  Level Anchorage Center
05:18PM 64.5667 -147.1833 302° West 450 518 32,000  Level Anchorage Center
05:19PM 64.6333 -147.4333 306° West 460 529 32,000  Level Anchorage Center
05:20PM 64.7167 -147.7000 304° West 440 506 32,000  Level Anchorage Center
05:21PM 64.7833 -147.9333 294° West 440 506 32,000  Level Anchorage Center
05:22PM 64.8333 -148.2000 295° West 460 529 32,000  Level Anchorage Center
05:23PM 64.8833 -148.4500 294° West 440 506 32,000  Level Anchorage Center
05:24PM 64.9333 -148.7167 299° West 440 506 32,000  Level Anchorage Center
05:25PM 65.0000 -149.0000 294° West 460 529 32,000  Level Anchorage Center
05:26PM 65.0500 -149.2667 293° West 450 518 32,000  Level Anchorage Center
05:27PM 65.1000 -149.5500 294° West 460 529 32,000  Level Anchorage Center
05:28PM 65.1500 -149.8167 293° West 460 529 32,000  Level Anchorage Center
05:29PM 65.2000 -150.1000 294° West 450 518 32,000  Level Anchorage Center
05:30PM 65.2500 -150.3667 294° West 450 518 32,000  Level Anchorage Center
05:31PM 65.3000 -150.6333 293° West 450 518 32,000  Level Anchorage Center
05:32PM 65.3500 -150.9167 293° West 450 518 32,000  Level Anchorage Center
05:33PM 65.4000 -151.2000 292° West 450 518 32,000  Level Anchorage Center
05:34PM 65.4500 -151.5000 294° West 440 506 32,000  Level Anchorage Center
05:35PM 65.5000 -151.7667 293° West 450 518 32,000  Level Anchorage Center
05:36PM 65.5500 -152.0500 293° West 450 518 32,000  Level Anchorage Center
05:37PM 65.6000 -152.3333 293° West 440 506 32,000  Level Anchorage Center
05:38PM 65.6500 -152.6167 293° West 450 518 32,000  Level Anchorage Center
05:39PM 65.7000 -152.9000 286° West 450 518 32,000  Level Anchorage Center
05:40PM 65.7333 -153.1833 292° West 450 518 32,000  Level Anchorage Center
05:41PM 65.7833 -153.4833 293° West 450 518 32,000  Level Anchorage Center
05:42PM 65.8333 -153.7667 289° West 450 518 32,000  Level Anchorage Center
05:43PM 65.8667 -154.0000 286° West 450 518 32,000  Level Anchorage Center
05:44PM 65.9000 -154.2833 292° West 450 518 32,000  Level Anchorage Center
05:45PM 65.9500 -154.5833 292° West 450 518 32,000  Level Anchorage Center
05:46PM 66.0000 -154.8833 286° West 450 518 32,000  Level Anchorage Center
05:47PM 66.0333 -155.1667 292° West 450 518 32,000  Level Anchorage Center
05:48PM 66.0833 -155.4667 286° West 450 518 32,000  Level Anchorage Center
05:49PM 66.1167 -155.7500 293° West 450 518 32,000  Level Anchorage Center
05:50PM 66.1667 -156.0500 283° West 450 518 32,000  Level Anchorage Center
05:51PM 66.2000 -156.4000 293° West 450 518 32,000  Level Anchorage Center
05:52PM 66.2500 -156.7000 286° West 450 518 32,000  Level Anchorage Center
05:53PM 66.2833 -157.0000 286° West 450 518 32,000  Level Anchorage Center
05:54PM 66.3167 -157.3000 286° West 450 518 32,000  Level Anchorage Center
05:55PM 66.3500 -157.5833 292° West 440 506 32,000  Level Anchorage Center
05:56PM 66.4000 -157.9000 286° West 460 529 32,000  Level Anchorage Center
05:57PM 66.4333 -158.2000 287° West 450 518 32,000  Level Anchorage Center
05:58PM 66.4667 -158.4833 287° West 450 518 32,000  Level Anchorage Center
05:59PM 66.5000 -158.7667 285° West 440 506 32,000  Level Anchorage Center
06:00PM 66.5333 -159.0833 286° West 450 518 32,000  Level Anchorage Center
06:01PM 66.5667 -159.3833 286° West 450 518 32,000  Level Anchorage Center
06:02PM 66.6000 -159.6833 286° West 450 518 32,000  Level Anchorage Center
06:03PM 66.6333 -159.9833 285° West 450 518 32,000  Level Anchorage Center
06:04PM 66.6667 -160.3000 286° West 450 518 32,000  Level Anchorage Center
06:05PM 66.7000 -160.6000 285° West 450 518 32,000  Level Anchorage Center
06:06PM 66.7333 -160.9167 278° West 450 518 32,000  Level Anchorage Center
06:07PM 66.7500 -161.2167 285° West 450 518 32,000  Level Anchorage Center
06:08PM 66.7833 -161.5333 285° West 460 529 32,000  Level Anchorage Center
06:09PM 66.8167 -161.8500 286° West 450 518 32,000  Level Anchorage Center
06:10PM 66.8500 -162.1500 278° West 450 518 32,000  Level Anchorage Center
06:11PM 66.8667 -162.4667 270° West 450 518 32,000  Level Anchorage Center
06:12PM 66.8667 -162.7667 270° West 450 518 32,000  Level Anchorage Center
06:13PM 66.8667 -163.1333 263° West 440 506 32,000  Level Anchorage Center
06:14PM 66.8500 -163.4500 270° West 460 529 32,000  Level Anchorage Center
06:15PM 66.8500 -163.7667 263° West 460 529 32,000  Level Anchorage Center
06:16PM 66.8333 -164.0833 270° West 450 518 32,000  Level Anchorage Center
06:17PM 66.8333 -164.4000 263° West 450 518 32,000  Level Anchorage Center
06:18PM 66.8167 -164.7167 263° West 450 518 32,000  Level Anchorage Center
06:19PM 66.8000 -165.0333 270° West 450 518 32,000  Level Anchorage Center
06:20PM 66.8000 -165.3500 263° West 450 518 32,000  Level Anchorage Center
06:21PM 66.7833 -165.6667 263° West 460 529 32,000  Level Anchorage Center
06:22PM 66.7667 -165.9833 263° West 460 529 32,000  Level Anchorage Center
06:23PM 66.7500 -166.3000 263° West 450 518 32,000  Level Anchorage Center
06:24PM 66.7333 -166.6333 262° West 450 518 32,000  Level Anchorage Center
06:25PM 66.7167 -166.9333 263° West 450 518 32,000  Level Anchorage Center
06:26PM 66.7000 -167.2500 270° West 450 518 32,000  Level Anchorage Center
06:27PM 66.7000 -167.5500 263° West 440 506 32,000  Level Anchorage Center
06:28PM 66.6833 -167.8667 262° West 440 506 32,000  Level Anchorage Center
06:30PM 66.6667 -168.1667 255° West 440 506 32,000  Level Anchorage Center
06:31PM 66.6333 -168.4833 262° West 460 529 32,000  Level Anchorage Center
06:32PM 66.6167 -168.7833 270° West 440 506 32,000  Level Anchorage Center
06:39PM 66.5983 -170.9897 268° West  Level FlightAware Approximate
06:40PM 66.5947 -171.2939 268° West  Level FlightAware Approximate
06:41PM 66.5905 -171.5979 268° West  Level FlightAware Approximate
06:42PM 66.5858 -171.9018 268° West  Level FlightAware Approximate
06:43PM 66.5804 -172.2056 267° West  Level FlightAware Approximate
06:44PM 66.5744 -172.5092 267° West  Level FlightAware Approximate
06:45PM 66.5679 -172.8127 267° West  Level FlightAware Approximate
06:46PM 66.5608 -173.1160 266° West  Level FlightAware Approximate
06:47PM 66.5531 -173.4192 266° West  Level FlightAware Approximate
06:48PM 66.5448 -173.7221 266° West  Level FlightAware Approximate
06:49PM 66.5359 -174.0249 266° West  Level FlightAware Approximate
06:50PM 66.5265 -174.3274 265° West  Level FlightAware Approximate
06:51PM 66.5164 -174.6297 265° West  Level FlightAware Approximate
06:52PM 66.5058 -174.9317 265° West  Level FlightAware Approximate
06:53PM 66.4946 -175.2335 265° West  Level FlightAware Approximate
06:54PM 66.4828 -175.5350 264° West  Level FlightAware Approximate
06:55PM 66.4704 -175.8362 264° West  Level FlightAware Approximate
06:56PM 66.4575 -176.1370 264° West  Level FlightAware Approximate
06:57PM 66.4439 -176.4376 263° West  Level FlightAware Approximate
06:58PM 66.4298 -176.7379 263° West  Level FlightAware Approximate
06:59PM 66.4152 -177.0378 263° West  Level FlightAware Approximate
07:00PM 66.3999 -177.3373 263° West  Level FlightAware Approximate
07:01PM 66.3841 -177.6365 264° West  Level FlightAware Approximate
07:02PM 66.3720 -177.9361 259° West  Level FlightAware Approximate
07:03PM 66.3490 -178.2320 259° West  Level FlightAware Approximate
07:04PM 66.3255 -178.5273 259° West  Level FlightAware Approximate
07:05PM 66.3013 -178.8221 258° West  Level FlightAware Approximate
07:06PM 66.2766 -179.1163 258° West  Level FlightAware Approximate
07:07PM 66.2514 -179.4099 258° West  Level FlightAware Approximate
07:08PM 66.2256 -179.7029 258° West  Level FlightAware Approximate
07:09PM 66.1993 -179.9953 257° West  Level FlightAware Approximate
07:10PM 66.1724 179.7129 257° West  Level FlightAware Approximate
07:11PM 66.1449 179.4218 257° West  Level FlightAware Approximate
07:12PM 66.1169 179.1312 256° West  Level FlightAware Approximate
07:13PM 66.0884 178.8413 256° West  Level FlightAware Approximate
07:14PM 66.0593 178.5521 256° West  Level FlightAware Approximate
07:15PM 66.0297 178.2635 256° West  Level FlightAware Approximate
07:16PM 65.9995 177.9757 255° West  Level FlightAware Approximate
07:17PM 65.9688 177.6885 255° West  Level FlightAware Approximate
07:18PM 65.9376 177.4020 255° West  Level FlightAware Approximate
07:19PM 65.9059 177.1162 255° West  Level FlightAware Approximate
07:20PM 65.8736 176.8311 254° West  Level FlightAware Approximate
07:21PM 65.8408 176.5467 254° West  Level FlightAware Approximate
07:22PM 65.8074 176.2631 254° West  Level FlightAware Approximate
07:23PM 65.7735 175.9802 254° West  Level FlightAware Approximate
07:24PM 65.7392 175.6981 253° West  Level FlightAware Approximate
07:25PM 65.7042 175.4167 253° West  Level FlightAware Approximate
07:26PM 65.6688 175.1361 253° West  Level FlightAware Approximate
07:27PM 65.6329 174.8562 253° West  Level FlightAware Approximate
07:28PM 65.5964 174.5771 252° West  Level FlightAware Approximate
07:29PM 65.5595 174.2988 252° West  Level FlightAware Approximate
07:30PM 65.5220 174.0213 252° West  Level FlightAware Approximate
07:31PM 65.4840 173.7447 252° West  Level FlightAware Approximate
07:32PM 65.4455 173.4688 251° West  Level FlightAware Approximate
07:33PM 65.4066 173.1937 251° West  Level FlightAware Approximate
07:34PM 65.3671 172.9195 251° West  Level FlightAware Approximate
07:35PM 65.3271 172.6461 251° West  Level FlightAware Approximate
07:36PM 65.2867 172.3735 242° Southwest  Level FlightAware Approximate
07:37PM 65.2300 172.1184 242° Southwest  Level FlightAware Approximate
07:38PM 65.1730 171.8644 242° Southwest  Level FlightAware Approximate
07:39PM 65.1155 171.6115 241° Southwest  Level FlightAware Approximate
07:40PM 65.0576 171.3596 241° Southwest  Level FlightAware Approximate
07:41PM 64.9993 171.1089 241° Southwest  Level FlightAware Approximate
07:42PM 64.9405 170.8593 241° Southwest  Level FlightAware Approximate
07:43PM 64.8814 170.6108 241° Southwest  Level FlightAware Approximate
07:44PM 64.8218 170.3634 240° Southwest  Level FlightAware Approximate
07:45PM 64.7618 170.1170 240° Southwest  Level FlightAware Approximate
07:46PM 64.7014 169.8718 240° Southwest  Level FlightAware Approximate
07:47PM 64.6407 169.6277 240° Southwest  Level FlightAware Approximate
07:48PM 64.5795 169.3846 239° Southwest  Level FlightAware Approximate
07:49PM 64.5179 169.1427 239° Southwest  Level FlightAware Approximate
07:50PM 64.4559 168.9018 238° Southwest  Level FlightAware Approximate
07:51PM 64.3916 168.6647 238° Southwest  Level FlightAware Approximate
07:52PM 64.3270 168.4288 238° Southwest  Level FlightAware Approximate
07:53PM 64.2620 168.1939 237° Southwest  Level FlightAware Approximate
07:54PM 64.1966 167.9602 237° Southwest  Level FlightAware Approximate
07:55PM 64.1308 167.7276 237° Southwest  Level FlightAware Approximate
07:56PM 64.0647 167.4960 237° Southwest  Level FlightAware Approximate
07:57PM 63.9981 167.2656 237° Southwest  Level FlightAware Approximate
07:58PM 63.9313 167.0363 236° Southwest  Level FlightAware Approximate
07:59PM 63.8641 166.8080 236° Southwest  Level FlightAware Approximate
08:00PM 63.7965 166.5809 236° Southwest  Level FlightAware Approximate
08:01PM 63.7285 166.3548 236° Southwest  Level FlightAware Approximate
08:02PM 63.6602 166.1298 235° Southwest  Level FlightAware Approximate
08:03PM 63.5916 165.9059 235° Southwest  Level FlightAware Approximate
08:04PM 63.5226 165.6831 235° Southwest  Level FlightAware Approximate
08:05PM 63.4533 165.4614 235° Southwest  Level FlightAware Approximate
08:06PM 63.3836 165.2407 235° Southwest  Level FlightAware Approximate
08:07PM 63.3136 165.0211 234° Southwest  Level FlightAware Approximate
08:08PM 63.2432 164.8026 234° Southwest  Level FlightAware Approximate
08:09PM 63.1725 164.5851 234° Southwest  Level FlightAware Approximate
08:10PM 63.1015 164.3687 234° Southwest  Level FlightAware Approximate
08:11PM 63.0302 164.1534 234° Southwest  Level FlightAware Approximate
08:12PM 62.9585 163.9391 234° Southwest  Level FlightAware Approximate
08:13PM 62.8865 163.7259 233° Southwest  Level FlightAware Approximate
08:14PM 62.8142 163.5137 233° Southwest  Level FlightAware Approximate
08:15PM 62.7416 163.3025 233° Southwest  Level FlightAware Approximate
08:16PM 62.6686 163.0924 233° Southwest  Level FlightAware Approximate
08:17PM 62.5954 162.8833 233° Southwest  Level FlightAware Approximate
08:18PM 62.5218 162.6753 232° Southwest  Level FlightAware Approximate
08:19PM 62.4479 162.4683 232° Southwest  Level FlightAware Approximate
08:20PM 62.3737 162.2623 232° Southwest  Level FlightAware Approximate
08:21PM 62.2992 162.0573 232° Southwest  Level FlightAware Approximate
08:22PM 62.2244 161.8533 232° Southwest  Level FlightAware Approximate
08:23PM 62.1494 161.6504 231° Southwest  Level FlightAware Approximate
08:24PM 62.0741 161.4487 231° Southwest  Level FlightAware Approximate
08:25PM 61.9985 161.2481 231° Southwest  Level FlightAware Approximate
08:26PM 61.9227 161.0484 231° Southwest  Level FlightAware Approximate
08:27PM 61.8465 160.8497 231° Southwest  Level FlightAware Approximate
08:28PM 61.7701 160.6520 230° Southwest  Level FlightAware Approximate
08:29PM 61.6920 160.4578 230° Southwest  Level FlightAware Approximate
08:30PM 61.6136 160.2646 229° Southwest  Level FlightAware Approximate
08:31PM 61.5349 160.0724 229° Southwest  Level FlightAware Approximate
08:32PM 61.4560 159.8811 229° Southwest  Level FlightAware Approximate
08:33PM 61.3768 159.6908 229° Southwest  Level FlightAware Approximate
08:34PM 61.2973 159.5014 229° Southwest  Level FlightAware Approximate
08:35PM 61.2175 159.3130 229° Southwest  Level FlightAware Approximate
08:36PM 61.1376 159.1256 228° Southwest  Level FlightAware Approximate
08:37PM 61.0573 158.9391 228° Southwest  Level FlightAware Approximate
08:38PM 60.9768 158.7536 228° Southwest  Level FlightAware Approximate
08:39PM 60.8960 158.5690 228° Southwest  Level FlightAware Approximate
08:40PM 60.8150 158.3853 228° Southwest  Level FlightAware Approximate
08:41PM 60.7338 158.2026 228° Southwest  Level FlightAware Approximate
08:42PM 60.6523 158.0208 227° Southwest  Level FlightAware Approximate
08:43PM 60.5705 157.8399 227° Southwest  Level FlightAware Approximate
08:44PM 60.4885 157.6599 227° Southwest  Level FlightAware Approximate
08:45PM 60.4063 157.4808 227° Southwest  Level FlightAware Approximate
08:46PM 60.3238 157.3026 227° Southwest  Level FlightAware Approximate
08:47PM 60.2411 157.1254 227° Southwest  Level FlightAware Approximate
08:48PM 60.1581 156.9490 227° Southwest  Level FlightAware Approximate
08:49PM 60.0750 156.7735 226° Southwest  Level FlightAware Approximate
08:50PM 59.9915 156.5989 226° Southwest  Level FlightAware Approximate
08:51PM 59.9079 156.4252 226° Southwest  Level FlightAware Approximate
08:52PM 59.8240 156.2523 226° Southwest  Level FlightAware Approximate
08:53PM 59.7399 156.0804 250° West  Level FlightAware Approximate
08:54PM 59.7009 155.8679 226° Southwest  Level FlightAware Approximate
08:55PM 59.6169 155.6963 226° Southwest  Level FlightAware Approximate
08:56PM 59.5327 155.5257 226° Southwest  Level FlightAware Approximate
08:57PM 59.4482 155.3558 226° Southwest  Level FlightAware Approximate
08:58PM 59.3636 155.1869 225° Southwest  Level FlightAware Approximate
08:59PM 59.2787 155.0187 225° Southwest  Level FlightAware Approximate
09:00PM 59.1936 154.8514 225° Southwest  Level FlightAware Approximate
09:01PM 59.1083 154.6850 225° Southwest  Level FlightAware Approximate
09:02PM 59.0228 154.5193 225° Southwest  Level FlightAware Approximate
09:03PM 58.9370 154.3545 225° Southwest  Level FlightAware Approximate
09:04PM 58.8511 154.1905 225° Southwest  Level FlightAware Approximate
09:05PM 58.7649 154.0273 224° Southwest  Level FlightAware Approximate
09:06PM 58.6786 153.8649 224° Southwest  Level FlightAware Approximate
09:07PM 58.5920 153.7034 224° Southwest  Level FlightAware Approximate
09:08PM 58.5053 153.5426 224° Southwest  Level FlightAware Approximate
09:09PM 58.4183 153.3826 224° Southwest  Level FlightAware Approximate
09:10PM 58.3312 153.2234 224° Southwest  Level FlightAware Approximate
09:11PM 58.2438 153.0650 224° Southwest  Level FlightAware Approximate
09:12PM 58.1563 152.9074 223° Southwest  Level FlightAware Approximate
09:13PM 58.0685 152.7505 223° Southwest  Level FlightAware Approximate
09:14PM 57.9806 152.5944 223° Southwest  Level FlightAware Approximate
09:15PM 57.8925 152.4391 223° Southwest  Level FlightAware Approximate
09:16PM 57.8042 152.2845 223° Southwest  Level FlightAware Approximate
09:17PM 57.7157 152.1307 223° Southwest  Level FlightAware Approximate
09:18PM 57.6270 151.9777 223° Southwest  Level FlightAware Approximate
09:19PM 57.5381 151.8254 223° Southwest  Level FlightAware Approximate
09:20PM 57.4491 151.6738 222° Southwest  Level FlightAware Approximate
09:21PM 57.3598 151.5230 222° Southwest  Level FlightAware Approximate
09:22PM 57.2704 151.3729 222° Southwest  Level FlightAware Approximate
09:23PM 57.1808 151.2235 222° Southwest  Level FlightAware Approximate
09:24PM 57.0911 151.0748 222° Southwest  Level FlightAware Approximate
09:25PM 57.0011 150.9269 222° Southwest  Level FlightAware Approximate
09:26PM 56.9110 150.7797 222° Southwest  Level FlightAware Approximate
09:27PM 56.8207 150.6332 222° Southwest  Level FlightAware Approximate
09:28PM 56.7303 150.4874 221° Southwest  Level FlightAware Approximate
09:29PM 56.6396 150.3423 221° Southwest  Level FlightAware Approximate
09:30PM 56.5489 150.1979 221° Southwest  Level FlightAware Approximate
09:31PM 56.4579 150.0542 221° Southwest  Level FlightAware Approximate
09:32PM 56.3668 149.9112 221° Southwest  Level FlightAware Approximate
09:33PM 56.2755 149.7688 221° Southwest  Level FlightAware Approximate
09:34PM 56.1840 149.6272 221° Southwest  Level FlightAware Approximate
09:35PM 56.0924 149.4862 221° Southwest  Level FlightAware Approximate
09:36PM 56.0007 149.3459 220° Southwest  Level FlightAware Approximate
09:37PM 55.9087 149.2062 220° Southwest  Level FlightAware Approximate
09:38PM 55.8166 149.0672 220° Southwest  Level FlightAware Approximate
09:39PM 55.7244 148.9289 220° Southwest  Level FlightAware Approximate
09:40PM 55.6320 148.7912 220° Southwest  Level FlightAware Approximate
09:41PM 55.5395 148.6542 220° Southwest  Level FlightAware Approximate
09:42PM 55.4468 148.5178 220° Southwest  Level FlightAware Approximate
09:43PM 55.3539 148.3820 220° Southwest  Level FlightAware Approximate
09:44PM 55.2609 148.2469 220° Southwest  Level FlightAware Approximate
09:45PM 55.1678 148.1124 219° Southwest  Level FlightAware Approximate
09:46PM 55.0745 147.9786 219° Southwest  Level FlightAware Approximate
09:47PM 54.9810 147.8454 219° Southwest  Level FlightAware Approximate
09:48PM 54.8874 147.7128 219° Southwest  Level FlightAware Approximate
09:49PM 54.7937 147.5808 219° Southwest  Level FlightAware Approximate
09:50PM 54.6998 147.4494 219° Southwest  Level FlightAware Approximate
09:51PM 54.6058 147.3186 219° Southwest  Level FlightAware Approximate
09:52PM 54.5116 147.1884 219° Southwest  Level FlightAware Approximate
09:53PM 54.4173 147.0589 219° Southwest  Level FlightAware Approximate
09:54PM 54.3229 146.9299 218° Southwest  Level FlightAware Approximate
09:55PM 54.2283 146.8015 218° Southwest  Level FlightAware Approximate
09:56PM 54.1336 146.6737 218° Southwest  Level FlightAware Approximate
09:57PM 54.0387 146.5465 218° Southwest  Level FlightAware Approximate
09:58PM 53.9437 146.4198 218° Southwest  Level FlightAware Approximate
09:59PM 53.8486 146.2937 218° Southwest  Level FlightAware Approximate
10:00PM 53.7534 146.1682 218° Southwest  Level FlightAware Approximate
10:01PM 53.6580 146.0433 218° Southwest  Level FlightAware Approximate
10:02PM 53.5625 145.9190 218° Southwest  Level FlightAware Approximate
10:03PM 53.4669 145.7952 218° Southwest  Level FlightAware Approximate
10:04PM 53.3711 145.6719 217° Southwest  Level FlightAware Approximate
10:05PM 53.2753 145.5492 217° Southwest  Level FlightAware Approximate
10:06PM 53.1792 145.4271 217° Southwest  Level FlightAware Approximate
10:07PM 53.0831 145.3055 217° Southwest  Level FlightAware Approximate
10:08PM 52.9869 145.1844 217° Southwest  Level FlightAware Approximate
10:09PM 52.8905 145.0639 217° Southwest  Level FlightAware Approximate
10:10PM 52.7940 144.9440 217° Southwest  Level FlightAware Approximate
10:11PM 52.6973 144.8245 217° Southwest  Level FlightAware Approximate
10:12PM 52.6006 144.7056 217° Southwest  Level FlightAware Approximate
10:13PM 52.5037 144.5872 217° Southwest  Level FlightAware Approximate
10:14PM 52.4068 144.4693 216° Southwest  Level FlightAware Approximate
10:15PM 52.3097 144.3520 216° Southwest  Level FlightAware Approximate
10:16PM 52.2125 144.2351 216° Southwest  Level FlightAware Approximate
10:17PM 52.1151 144.1188 216° Southwest  Level FlightAware Approximate
10:18PM 52.0180 144.0033 216° Southwest  Level FlightAware Approximate
10:19PM 51.9207 143.8883 216° Southwest  Level FlightAware Approximate
10:20PM 51.8233 143.7738 216° Southwest  Level FlightAware Approximate
10:21PM 51.7258 143.6598 216° Southwest  Level FlightAware Approximate
10:22PM 51.6282 143.5463 216° Southwest  Level FlightAware Approximate
10:23PM 51.5305 143.4332 216° Southwest  Level FlightAware Approximate
10:24PM 51.4326 143.3207 216° Southwest  Level FlightAware Approximate
10:25PM 51.3347 143.2086 215° Southwest  Level FlightAware Approximate
10:26PM 51.2367 143.0970 215° Southwest  Level FlightAware Approximate
10:27PM 51.1385 142.9859 215° Southwest  Level FlightAware Approximate
10:28PM 51.0403 142.8753 215° Southwest  Level FlightAware Approximate
10:29PM 50.9419 142.7651 215° Southwest  Level FlightAware Approximate
10:30PM 50.8434 142.6554 215° Southwest  Level FlightAware Approximate
10:31PM 50.7449 142.5461 215° Southwest  Level FlightAware Approximate
10:32PM 50.6462 142.4374 215° Southwest  Level FlightAware Approximate
10:33PM 50.5474 142.3290 215° Southwest  Level FlightAware Approximate
10:34PM 50.4486 142.2211 215° Southwest  Level FlightAware Approximate
10:35PM 50.3496 142.1137 215° Southwest  Level FlightAware Approximate
10:36PM 50.2505 142.0067 215° Southwest  Level FlightAware Approximate
10:37PM 50.1514 141.9002 214° Southwest  Level FlightAware Approximate
10:38PM 50.0521 141.7941 214° Southwest  Level FlightAware Approximate
10:39PM 49.9528 141.6885 214° Southwest  Level FlightAware Approximate
10:40PM 49.8533 141.5832 214° Southwest  Level FlightAware Approximate
10:41PM 49.7538 141.4785 214° Southwest  Level FlightAware Approximate
10:42PM 49.6541 141.3741 214° Southwest  Level FlightAware Approximate
10:43PM 49.5544 141.2702 214° Southwest  Level FlightAware Approximate
10:44PM 49.4546 141.1667 214° Southwest  Level FlightAware Approximate
10:45PM 49.3546 141.0636 214° Southwest  Level FlightAware Approximate
10:46PM 49.2546 140.9609 214° Southwest  Level FlightAware Approximate
10:47PM 49.1545 140.8586 214° Southwest  Level FlightAware Approximate
10:48PM 49.0543 140.7568 214° Southwest  Level FlightAware Approximate
10:49PM 48.9541 140.6554 214° Southwest  Level FlightAware Approximate
10:50PM 48.8537 140.5543 213° Southwest  Level FlightAware Approximate
10:51PM 48.7532 140.4537 213° Southwest  Level FlightAware Approximate
10:52PM 48.6527 140.3535 213° Southwest  Level FlightAware Approximate
10:53PM 48.5521 140.2537 213° Southwest  Level FlightAware Approximate
10:54PM 48.4514 140.1543 213° Southwest  Level FlightAware Approximate
10:55PM 48.3506 140.0552 213° Southwest  Level FlightAware Approximate
10:56PM 48.2497 139.9566 213° Southwest  Level FlightAware Approximate
10:57PM 48.1487 139.8583 213° Southwest  Level FlightAware Approximate
10:58PM 48.0476 139.7605 213° Southwest  Level FlightAware Approximate
10:59PM 47.9465 139.6630 213° Southwest  Level FlightAware Approximate
11:00PM 47.8453 139.5659 213° Southwest  Level FlightAware Approximate
11:01PM 47.7440 139.4692 213° Southwest  Level FlightAware Approximate
11:02PM 47.6426 139.3728 213° Southwest  Level FlightAware Approximate
11:03PM 47.5411 139.2769 212° Southwest  Level FlightAware Approximate
11:04PM 47.4396 139.1813 212° Southwest  Level FlightAware Approximate
11:05PM 47.3380 139.0860 212° Southwest  Level FlightAware Approximate
11:06PM 47.2363 138.9912 212° Southwest  Level FlightAware Approximate
11:07PM 47.1345 138.8967 212° Southwest  Level FlightAware Approximate
11:08PM 47.0327 138.8025 212° Southwest  Level FlightAware Approximate
11:09PM 46.9307 138.7088 212° Southwest  Level FlightAware Approximate
11:10PM 46.8287 138.6153 212° Southwest  Level FlightAware Approximate
11:11PM 46.7266 138.5222 212° Southwest  Level FlightAware Approximate
11:12PM 46.6245 138.4295 212° Southwest  Level FlightAware Approximate
11:13PM 46.5223 138.3372 212° Southwest  Level FlightAware Approximate
11:14PM 46.4199 138.2451 212° Southwest  Level FlightAware Approximate
11:15PM 46.3176 138.1534 212° Southwest  Level FlightAware Approximate
11:16PM 46.2151 138.0621 212° Southwest  Level FlightAware Approximate
11:17PM 46.1126 137.9711 212° Southwest  Level FlightAware Approximate
11:18PM 46.0100 137.8805 211° Southwest  Level FlightAware Approximate
11:19PM 45.9073 137.7901 211° Southwest  Level FlightAware Approximate
11:20PM 45.8046 137.7002 211° Southwest  Level FlightAware Approximate
11:21PM 45.7018 137.6105 211° Southwest  Level FlightAware Approximate
11:22PM 45.5989 137.5212 211° Southwest  Level FlightAware Approximate
11:23PM 45.4959 137.4322 211° Southwest  Level FlightAware Approximate
11:24PM 45.3929 137.3435 211° Southwest  Level FlightAware Approximate
11:25PM 45.2898 137.2552 211° Southwest  Level FlightAware Approximate
11:26PM 45.1867 137.1671 211° Southwest  Level FlightAware Approximate
11:27PM 45.0835 137.0794 211° Southwest  Level FlightAware Approximate
11:28PM 44.9802 136.9920 211° Southwest  Level FlightAware Approximate
11:29PM 44.8768 136.9049 211° Southwest  Level FlightAware Approximate
11:30PM 44.7734 136.8181 211° Southwest  Level FlightAware Approximate
11:31PM 44.6699 136.7317 211° Southwest  Level FlightAware Approximate
11:32PM 44.5664 136.6455 211° Southwest  Level FlightAware Approximate
11:33PM 44.4627 136.5597 211° Southwest  Level FlightAware Approximate
11:34PM 44.3591 136.4742 210° Southwest  Level FlightAware Approximate
11:35PM 44.2553 136.3889 210° Southwest  Level FlightAware Approximate
11:36PM 44.1515 136.3040 210° Southwest  Level FlightAware Approximate
11:37PM 44.0476 136.2193 210° Southwest  Level FlightAware Approximate
11:38PM 43.9437 136.1350 210° Southwest  Level FlightAware Approximate
11:39PM 43.8397 136.0509 210° Southwest  Level FlightAware Approximate
11:40PM 43.7357 135.9672 210° Southwest  Level FlightAware Approximate
11:41PM 43.6315 135.8837 210° Southwest  Level FlightAware Approximate
11:42PM 43.5274 135.8005 210° Southwest  Level FlightAware Approximate
11:43PM 43.4231 135.7177 210° Southwest  Level FlightAware Approximate
11:44PM 43.3188 135.6351 210° Southwest  Level FlightAware Approximate
11:45PM 43.2145 135.5527 210° Southwest  Level FlightAware Approximate
11:46PM 43.1101 135.4707 210° Southwest  Level FlightAware Approximate
11:47PM 43.0056 135.3889 210° Southwest  Level FlightAware Approximate
11:48PM 42.9011 135.3074 210° Southwest  Level FlightAware Approximate
11:49PM 42.7965 135.2262 210° Southwest  Level FlightAware Approximate
11:50PM 42.6918 135.1453 210° Southwest  Level FlightAware Approximate
11:51PM 42.5871 135.0647 210° Southwest  Level FlightAware Approximate
11:52PM 42.4824 134.9843 209° Southwest  Level FlightAware Approximate
11:53PM 42.3775 134.9041 209° Southwest  Level FlightAware Approximate
11:54PM 42.2727 134.8243 209° Southwest  Level FlightAware Approximate
11:55PM 42.1678 134.7447 209° Southwest  Level FlightAware Approximate
11:56PM 42.0628 134.6653 209° Southwest  Level FlightAware Approximate
11:57PM 41.9577 134.5863 209° Southwest  Level FlightAware Approximate
11:58PM 41.8526 134.5075 209° Southwest  Level FlightAware Approximate
11:59PM 41.7475 134.4289 209° Southwest  Level FlightAware Approximate
12:00AM 41.6423 134.3506 209° Southwest  Level FlightAware Approximate
12:01AM 41.5371 134.2726 209° Southwest  Level FlightAware Approximate
12:02AM 41.4318 134.1948 209° Southwest  Level FlightAware Approximate
12:03AM 41.3264 134.1173 209° Southwest  Level FlightAware Approximate
12:04AM 41.2210 134.0400 209° Southwest  Level FlightAware Approximate
12:05AM 41.1155 133.9630 225° Southwest  Level FlightAware Approximate
12:06AM 41.0309 133.8496 225° Southwest  Level FlightAware Approximate
12:07AM 40.9461 133.7364 225° Southwest  Level FlightAware Approximate
12:08AM 40.8612 133.6236 225° Southwest  Level FlightAware Approximate
12:09AM 40.7762 133.5110 225° Southwest  Level FlightAware Approximate
12:10AM 40.6910 133.3987 232° Southwest  Level FlightAware Approximate
12:11AM 40.6165 133.2742 232° Southwest  Level FlightAware Approximate
12:12AM 40.5419 133.1499 232° Southwest  Level FlightAware Approximate
12:13AM 40.4671 133.0258 232° Southwest  Level FlightAware Approximate
12:14AM 40.3922 132.9021 231° Southwest  Level FlightAware Approximate
12:15AM 40.3172 132.7786 231° Southwest  Level FlightAware Approximate
12:16AM 40.2420 132.6554 231° Southwest  Level FlightAware Approximate
12:17AM 40.1667 132.5325 231° Southwest  Level FlightAware Approximate
12:18AM 40.0913 132.4099 237° Southwest  Level FlightAware Approximate
12:19AM 40.0252 132.2784 237° Southwest  Level FlightAware Approximate
12:20AM 39.9590 132.1473 237° Southwest  Level FlightAware Approximate
12:21AM 39.8926 132.0164 238° Southwest  Level FlightAware Approximate
12:22AM 39.8286 131.8836 238° Southwest  Level FlightAware Approximate
12:23AM 39.7644 131.7511 230° Southwest  Level FlightAware Approximate
12:24AM 39.6865 131.6319 230° Southwest  Level FlightAware Approximate
12:25AM 39.6084 131.5129 226° Southwest  Level FlightAware Approximate
12:26AM 39.5247 131.4008 226° Southwest  Level FlightAware Approximate
12:27AM 39.4408 131.2889 226° Southwest  Level FlightAware Approximate
12:28AM 39.3569 131.1774 226° Southwest  Level FlightAware Approximate
12:29AM 39.2728 131.0660 226° Southwest  Level FlightAware Approximate
12:30AM 39.1886 130.9550 226° Southwest  Level FlightAware Approximate
12:31AM 39.1044 130.8442 226° Southwest  Level FlightAware Approximate
12:32AM 39.0200 130.7337 220° Southwest  Level FlightAware Approximate
12:33AM 38.9277 130.6342 220° Southwest  Level FlightAware Approximate
12:34AM 38.8354 130.5350 220° Southwest  Level FlightAware Approximate
12:35AM 38.7430 130.4361 220° Southwest  Level FlightAware Approximate
12:36AM 38.6506 130.3374 220° Southwest  Level FlightAware Approximate
12:37AM 38.5580 130.2390 220° Southwest  Level FlightAware Approximate
12:38AM 38.4654 130.1408 220° Southwest  Level FlightAware Approximate
12:39AM 38.3727 130.0429 220° Southwest  Level FlightAware Approximate
12:40AM 38.2799 129.9453 220° Southwest  Level FlightAware Approximate
12:41AM 38.1872 129.8481 219° Southwest  Level FlightAware Approximate
12:42AM 38.0945 129.7512 219° Southwest  Level FlightAware Approximate
12:43AM 38.0017 129.6545 219° Southwest  Level FlightAware Approximate
12:44AM 37.9089 129.5581 219° Southwest  Level FlightAware Approximate
12:45AM 37.8159 129.4619 213° Southwest  Level FlightAware Approximate
12:46AM 37.7149 129.3799 213° Southwest  Level FlightAware Approximate
12:47AM 37.6139 129.2981 213° Southwest  Level FlightAware Approximate
12:48AM 37.5128 129.2166 213° Southwest  Level FlightAware Approximate
12:49AM 37.4116 129.1352 213° Southwest  Level FlightAware Approximate
12:50AM 37.3104 129.0541 212° Southwest  Level FlightAware Approximate
12:51AM 37.2091 128.9732 207° Southwest  Level FlightAware Approximate
12:52AM 37.1025 128.9040 207° Southwest  Level FlightAware Approximate
12:53AM 36.9959 128.8350 207° Southwest  Level FlightAware Approximate
12:54AM 36.8892 128.7662 206° Southwest  Level FlightAware Approximate
12:55AM 36.7815 128.7000 206° Southwest  Level FlightAware Approximate
12:56AM 36.6738 128.6340 206° Southwest  Level FlightAware Approximate
12:57AM 36.5660 128.5682 206° Southwest  Level FlightAware Approximate
12:58AM 36.4582 128.5025 205° Southwest  Level FlightAware Approximate
12:59AM 36.3498 128.4386 205° Southwest  Level FlightAware Approximate
01:00AM 36.2413 128.3749 205° Southwest  Level FlightAware Approximate
01:01AM 36.1328 128.3114 205° Southwest  Level FlightAware Approximate
01:02AM 36.0243 128.2480 214° Southwest  Level FlightAware Approximate
01:03AM 35.9245 128.1655 214° Southwest  Level FlightAware Approximate
01:04AM 35.8247 128.0833 214° Southwest  Level FlightAware Approximate
01:05AM 35.7248 128.0013 214° Southwest  Level FlightAware Approximate
01:06AM 35.6249 127.9194 214° Southwest  Level FlightAware Approximate
01:07AM 35.5249 127.8378 220° Southwest  Level FlightAware Approximate
01:08AM 35.4334 127.7424 220° Southwest  Level FlightAware Approximate
01:09AM 35.3419 127.6472 220° Southwest  Level FlightAware Approximate
01:10AM 35.2503 127.5522 220° Southwest  Level FlightAware Approximate
01:11AM 35.1586 127.4574 220° Southwest  Level FlightAware Approximate
01:12AM 35.0668 127.3629 220° Southwest  Level FlightAware Approximate
01:13AM 34.9750 127.2685 220° Southwest  Level FlightAware Approximate
01:14AM 34.8831 127.1744 220° Southwest  Level FlightAware Approximate
01:15AM 34.7911 127.0805 220° Southwest  Level FlightAware Approximate
01:16AM 34.6991 126.9867 220° Southwest  Level FlightAware Approximate
01:17AM 34.6069 126.8932 220° Southwest  Level FlightAware Approximate
01:18AM 34.5148 126.7999 220° Southwest  Level FlightAware Approximate
01:19AM 34.4225 126.7068 220° Southwest  Level FlightAware Approximate
01:20AM 34.3302 126.6139 135° Southeast  Level FlightAware Approximate
01:21AM 34.2467 126.7163 225° Southwest  Level FlightAware Approximate
01:22AM 34.1620 126.6136 225° Southwest  Level FlightAware Approximate
01:23AM 34.0771 126.5110 225° Southwest  Level FlightAware Approximate
01:24AM 33.9922 126.4087 226° Southwest  Level FlightAware Approximate
01:25AM 33.9091 126.3043 227° Southwest  Level FlightAware Approximate
01:26AM 33.8278 126.1980 227° Southwest  Level FlightAware Approximate
01:27AM 33.7464 126.0919 233° Southwest  Level FlightAware Approximate
01:28AM 33.6746 125.9763 234° Southwest  Level FlightAware Approximate
01:29AM 33.6043 125.8594 234° Southwest  Level FlightAware Approximate
01:30AM 33.5339 125.7428 235° Southwest  Level FlightAware Approximate
01:31AM 33.4648 125.6251 235° Southwest  Level FlightAware Approximate
01:32AM 33.3956 125.5076 235° Southwest  Level FlightAware Approximate
01:33AM 33.3263 125.3903 235° Southwest  Level FlightAware Approximate
01:34AM 33.2568 125.2732 235° Southwest  Level FlightAware Approximate
01:35AM 33.1873 125.1563 235° Southwest  Level FlightAware Approximate
01:36AM 33.1176 125.0396 234° Southwest  Level FlightAware Approximate
01:37AM 33.0478 124.9230 234° Southwest  Level FlightAware Approximate
01:38AM 32.9780 124.8067 234° Southwest  Level FlightAware Approximate
01:39AM 32.9080 124.6905 234° Southwest  Level FlightAware Approximate
01:40AM 32.8379 124.5745 234° Southwest  Level FlightAware Approximate
01:41AM 32.7677 124.4587 234° Southwest  Level FlightAware Approximate
01:42AM 32.6974 124.3431 234° Southwest  Level FlightAware Approximate
01:43AM 32.6270 124.2276 234° Southwest  Level FlightAware Approximate
01:44AM 32.5565 124.1124 234° Southwest  Level FlightAware Approximate
01:45AM 32.4859 123.9973 234° Southwest  Level FlightAware Approximate
01:46AM 32.4151 123.8824 234° Southwest  Level FlightAware Approximate
01:47AM 32.3443 123.7676 234° Southwest  Level FlightAware Approximate
01:48AM 32.2734 123.6531 234° Southwest  Level FlightAware Approximate
01:49AM 32.2023 123.5387 234° Southwest  Level FlightAware Approximate
01:50AM 32.1312 123.4245 234° Southwest  Level FlightAware Approximate
01:51AM 32.0600 123.3105 234° Southwest  Level FlightAware Approximate
01:52AM 31.9886 123.1967 233° Southwest  Level FlightAware Approximate
01:53AM 31.9172 123.0831 233° Southwest  Level FlightAware Approximate
01:54AM 31.8456 122.9696 233° Southwest  Level FlightAware Approximate
01:55AM 31.7740 122.8563 233° Southwest  Level FlightAware Approximate
01:56AM 31.7022 122.7431 233° Southwest  Level FlightAware Approximate
01:57AM 31.6304 122.6302 233° Southwest  Level FlightAware Approximate
01:58AM 31.5584 122.5174 233° Southwest  Level FlightAware Approximate
01:59AM 31.4864 122.4048 233° Southwest  Level FlightAware Approximate
02:00AM 31.4143 122.2924 233° Southwest  Level FlightAware Approximate
02:01AM 31.3420 122.1801 233° Southwest  Level FlightAware Approximate
02:02AM 31.2697 122.0681 209° Southwest  Level FlightAware Approximate
02:03AM 31.1833 122.0131 253° West  Level FlightAware Approximate
02:04AM 31.1497 121.8816 265° West  Level FlightAware Approximate
02:05AM 31.1389 121.7419 75° East  Level Estimated
02:06AM 31.9836 125.7181 257° West  Level FlightAware Approximate
02:07AM 31.9559 125.5804 257° West  Level FlightAware Approximate
02:08AM 31.9281 125.4428 257° West  Level FlightAware Approximate
02:09AM 31.9001 125.3054 256° West  Level FlightAware Approximate
02:10AM 31.8720 125.1680 256° West  Level FlightAware Approximate
02:11AM 31.8437 125.0306 256° West  Level FlightAware Approximate
02:12AM 31.8153 124.8934 256° West  Level FlightAware Approximate
02:13AM 31.7867 124.7562 256° West  Level FlightAware Approximate
02:14AM 31.7580 124.6192 256° West  Level FlightAware Approximate
02:15AM 31.7291 124.4822 256° West  Level FlightAware Approximate
02:16AM 31.7001 124.3453 256° West  Level FlightAware Approximate
02:17AM 31.6709 124.2085 256° West  Level FlightAware Approximate
02:18AM 31.6416 124.0718 256° West  Level FlightAware Approximate
02:19AM 31.6121 123.9351 256° West  Level FlightAware Approximate
02:20AM 31.5825 123.7986 256° West  Level FlightAware Approximate
02:21AM 31.5528 123.6621 256° West  Level FlightAware Approximate
02:22AM 31.5229 123.5258 256° West  Level FlightAware Approximate
02:23AM 31.4928 123.3895 255° West  Level FlightAware Approximate
02:24AM 31.4627 123.2533 255° West  Level FlightAware Approximate
02:25AM 31.4324 123.1172 255° West  Level FlightAware Approximate
02:26AM 31.4019 122.9811 255° West  Level FlightAware Approximate
02:27AM 31.3713 122.8452 255° West  Level FlightAware Approximate
02:28AM 31.3405 122.7094 255° West  Level FlightAware Approximate
02:29AM 31.3096 122.5736 255° West  Level FlightAware Approximate
02:30AM 31.2786 122.4379 255° West  Level FlightAware Approximate
02:31AM 31.2474 122.3023 255° West  Level FlightAware Approximate
02:32AM 31.2161 122.1668 255° West  Level FlightAware Approximate
02:33AM 31.1846 122.0314 255° West  Level FlightAware Approximate
02:34AM 31.1530 121.8961 259° West  Level FlightAware Approximate
02:35AM 31.1333 121.7833 39° Northeast  Level FlightAware Approximate
02:36AM 31.2262 121.8721 219° Southwest  Level Estimated
02:37AM 31.1333 121.7833 39° Northeast  Level Estimated
02:38AM 31.2262 121.8721 219° Southwest  Level Estimated
02:39AM 31.1333 121.7833 360° North  Level Estimated
02:40AM 31.1333 121.7833 39° Northeast  Level FlightAware Approximate
02:41AM 31.2262 121.8721 219° Southwest  Level Estimated
02:42AM 31.1333 121.7833 39° Northeast  Level FlightAware Approximate
02:43AM 31.2262 121.8721 219° Southwest  Level Estimated
02:44AM 31.1333 121.7833 219° Southwest  Level FlightAware Approximate